Time;durP1;ratioP1;P1;durP2;ratioP2;P2;SDS_P1;SDS_P2;PMS_P1;PMS_P2;Temp;Humidity;BMP_temperature;BMP_pressure;BME280_temperature;BME280_humidity;BME280_pressure;Samples;Min_cycle;Max_cycle;Signal;HPM_P1;HPM_P2
2022/10/25 00:00:26;;;;;;;;;;;15.20;94.10;;;;;;5040022;28;19956;-67
2022/10/25 00:02:53;;;;;;;;;;;15.20;94.10;;;;;;5038209;28;19929;-67
2022/10/25 00:05:19;;;;;;;;;;;15.10;94.10;;;;;;5038506;28;19931;-67
2022/10/25 00:07:47;;;;;;;;;;;15.10;94.10;;;;;;5042301;28;19932;-67
2022/10/25 00:10:14;;;;;;;;;;;15.10;94.20;;;;;;5037402;28;19925;-68
2022/10/25 00:12:41;;;;;;;;;;;15.00;94.10;;;;;;5042776;28;19924;-68
2022/10/25 00:15:08;;;;;;;;;;;15.00;94.10;;;;;;5039628;28;19933;-67
2022/10/25 00:17:34;;;;;;;;;;;15.00;94.10;;;;;;5041613;28;20011;-67
2022/10/25 00:20:01;;;;;;;;;;;15.00;94.20;;;;;;5033239;28;19932;-66
2022/10/25 00:22:28;;;;;;;;;;;15.00;94.20;;;;;;5043267;28;19925;-66
2022/10/25 00:24:56;;;;;;;;;;;15.00;94.20;;;;;;5041589;28;19929;-67
2022/10/25 00:27:23;;;;;;;;;;;15.00;94.20;;;;;;5038119;28;20589;-67
2022/10/25 00:29:49;;;;;;;;;;;15.00;94.20;;;;;;5040506;28;20648;-68
2022/10/25 00:32:16;;;;;;;;;;;14.90;94.20;;;;;;5035942;28;20019;-67
2022/10/25 00:34:42;;;;;;;;;;;14.90;94.20;;;;;;5039518;28;20376;-68
2022/10/25 00:37:09;;;;;;;;;;;14.90;94.20;;;;;;5041331;28;19939;-67
2022/10/25 00:39:35;;;;;;;;;;;14.90;94.10;;;;;;5040062;28;19925;-67
2022/10/25 00:42:03;;;;;;;;;;;14.90;94.10;;;;;;5038859;28;19924;-68
2022/10/25 00:44:53;;;;;;;;;;;14.90;94.00;;;;;;5041616;28;20594;-69
2022/10/25 00:47:26;;;;;;;;;;;14.90;94.10;;;;;;5042199;28;19929;-66
2022/10/25 00:49:56;;;;;;;;;;;14.80;94.10;;;;;;5045385;28;19932;-68
2022/10/25 00:52:23;;;;;;;;;;;14.90;94.10;;;;;;5040203;28;20980;-66
2022/10/25 00:54:50;;;;;;;;;;;14.90;94.10;;;;;;5044137;28;19925;-67
2022/10/25 00:57:19;;;;;;;;;;;14.80;94.10;;;;;;5039546;28;19932;-66
2022/10/25 00:59:47;;;;;;;;;;;14.90;94.00;;;;;;5045793;28;19998;-67
2022/10/25 01:02:14;;;;;;;;;;;14.80;93.90;;;;;;5043189;28;19932;-67
2022/10/25 01:04:41;;;;;;;;;;;14.90;93.90;;;;;;5043304;28;19925;-67
2022/10/25 01:07:07;;;;;;;;;;;14.80;93.90;;;;;;5045511;28;19928;-67
2022/10/25 01:09:35;;;;;;;;;;;14.90;93.90;;;;;;5043770;28;20974;-67
2022/10/25 01:12:01;;;;;;;;;;;14.90;93.90;;;;;;5040378;28;19935;-66
2022/10/25 01:14:30;;;;;;;;;;;14.90;93.90;;;;;;5045608;28;19937;-68
2022/10/25 01:17:00;;;;;;;;;;;14.90;94.00;;;;;;5037339;28;19929;-68
2022/10/25 01:19:36;;;;;;;;;;;14.80;93.90;;;;;;5038475;28;19936;-67
2022/10/25 01:22:04;;;;;;;;;;;14.80;93.90;;;;;;5044836;28;19940;-68
2022/10/25 01:24:37;;;;;;;;;;;14.80;93.90;;;;;;5044907;28;19936;-67
2022/10/25 01:27:19;;;;;;;;;;;14.90;94.00;;;;;;5040584;28;19940;-67
2022/10/25 01:30:05;;;;;;;;;;;14.90;94.00;;;;;;5006222;28;19951;-68
2022/10/25 01:32:38;;;;;;;;;;;14.80;94.20;;;;;;5044176;28;19932;-67
2022/10/25 01:35:08;;;;;;;;;;;14.80;93.90;;;;;;5039232;28;19929;-68
2022/10/25 01:37:39;;;;;;;;;;;14.80;93.80;;;;;;5045247;28;19935;-66
2022/10/25 01:40:08;;;;;;;;;;;14.80;94.20;;;;;;5041262;28;20315;-66
2022/10/25 01:42:38;;;;;;;;;;;14.80;93.90;;;;;;5040109;28;19936;-66
2022/10/25 01:45:07;;;;;;;;;;;14.80;93.80;;;;;;5043655;28;19932;-66
2022/10/25 01:47:37;;;;;;;;;;;14.80;93.90;;;;;;5042800;28;19933;-67
2022/10/25 01:50:07;;;;;;;;;;;14.80;93.80;;;;;;5041928;28;19928;-66
2022/10/25 01:52:33;;;;;;;;;;;14.80;93.90;;;;;;5042783;28;19936;-67
2022/10/25 01:55:00;;;;;;;;;;;14.80;93.90;;;;;;5044294;28;20613;-66
2022/10/25 01:57:37;;;;;;;;;;;14.80;93.90;;;;;;5043865;28;19937;-67
2022/10/25 02:00:08;;;;;;;;;;;14.80;94.00;;;;;;5044178;28;20323;-68
2022/10/25 02:02:41;;;;;;;;;;;14.80;93.90;;;;;;5044730;28;19929;-68
2022/10/25 02:05:12;;;;;;;;;;;14.80;94.00;;;;;;5039013;28;20433;-66
2022/10/25 02:07:41;;;;;;;;;;;14.80;94.00;;;;;;5043345;28;20495;-66
2022/10/25 02:10:09;;;;;;;;;;;14.80;94.00;;;;;;5041208;28;19947;-69
2022/10/25 02:12:40;;;;;;;;;;;14.80;94.00;;;;;;5038113;28;19936;-68
2022/10/25 02:15:09;;;;;;;;;;;14.80;94.00;;;;;;5041810;28;19936;-66
2022/10/25 02:17:37;;;;;;;;;;;14.80;94.00;;;;;;5040201;28;19929;-67
2022/10/25 02:20:06;;;;;;;;;;;14.80;94.10;;;;;;5045398;28;20290;-68
2022/10/25 02:22:33;;;;;;;;;;;14.80;94.10;;;;;;5044539;28;19946;-67
2022/10/25 02:25:01;;;;;;;;;;;14.80;94.10;;;;;;5042262;28;19929;-66
2022/10/25 02:27:27;;;;;;;;;;;14.80;94.20;;;;;;5038787;28;19932;-66
2022/10/25 02:29:54;;;;;;;;;;;14.80;94.20;;;;;;5040976;28;19936;-67
2022/10/25 02:32:21;;;;;;;;;;;14.80;94.20;;;;;;5043450;28;19939;-67
2022/10/25 02:34:48;;;;;;;;;;;14.80;94.20;;;;;;5040907;28;20510;-67
2022/10/25 02:37:16;;;;;;;;;;;14.80;94.20;;;;;;5045003;28;19928;-67
2022/10/25 02:39:43;;;;;;;;;;;14.80;94.20;;;;;;5043202;28;19929;-66
2022/10/25 02:42:10;;;;;;;;;;;14.80;94.20;;;;;;5035782;28;20389;-68
2022/10/25 02:44:37;;;;;;;;;;;14.70;94.20;;;;;;5041036;28;20384;-67
2022/10/25 02:47:03;;;;;;;;;;;14.80;94.20;;;;;;5037803;28;19929;-67
2022/10/25 02:49:30;;;;;;;;;;;14.70;94.20;;;;;;5033452;28;19933;-66
2022/10/25 02:51:56;;;;;;;;;;;14.70;94.20;;;;;;5035184;28;19936;-68
2022/10/25 02:54:24;;;;;;;;;;;14.70;94.30;;;;;;5034727;28;19928;-67
2022/10/25 02:56:51;;;;;;;;;;;14.70;94.30;;;;;;5034855;28;19939;-67
2022/10/25 02:59:19;;;;;;;;;;;14.70;94.30;;;;;;5042719;28;19928;-66
2022/10/25 03:01:46;;;;;;;;;;;14.70;94.40;;;;;;5038510;28;19925;-67
2022/10/25 03:04:13;;;;;;;;;;;14.70;94.40;;;;;;5037641;28;19935;-66
2022/10/25 03:06:39;;;;;;;;;;;14.70;94.50;;;;;;5040150;28;20530;-68
2022/10/25 03:09:06;;;;;;;;;;;14.70;94.50;;;;;;5039199;28;20389;-67
2022/10/25 03:11:34;;;;;;;;;;;14.70;94.50;;;;;;5034497;28;20397;-67
2022/10/25 03:14:00;;;;;;;;;;;14.70;94.50;;;;;;5044190;28;19925;-65
2022/10/25 03:16:27;;;;;;;;;;;14.70;94.50;;;;;;5035346;28;19936;-67
2022/10/25 03:18:56;;;;;;;;;;;14.60;94.50;;;;;;5038966;28;19937;-67
2022/10/25 03:21:22;;;;;;;;;;;14.70;94.60;;;;;;5044565;28;19936;-68
2022/10/25 03:23:49;;;;;;;;;;;14.70;94.60;;;;;;5039811;28;19933;-66
2022/10/25 03:26:15;;;;;;;;;;;14.70;94.60;;;;;;5042628;28;19933;-67
2022/10/25 03:28:43;;;;;;;;;;;14.70;94.60;;;;;;5036146;28;19928;-66
2022/10/25 03:31:11;;;;;;;;;;;14.60;94.60;;;;;;5043447;28;19932;-67
2022/10/25 03:33:37;;;;;;;;;;;14.70;94.60;;;;;;5041756;28;20673;-66
2022/10/25 03:36:05;;;;;;;;;;;14.60;94.60;;;;;;5044309;28;20397;-67
2022/10/25 03:38:31;;;;;;;;;;;14.60;94.60;;;;;;5044042;28;19972;-67
2022/10/25 03:40:58;;;;;;;;;;;14.70;94.60;;;;;;5041310;28;20405;-68
2022/10/25 03:43:24;;;;;;;;;;;14.60;94.60;;;;;;5041996;28;19932;-67
2022/10/25 03:45:52;;;;;;;;;;;14.70;94.60;;;;;;5045084;28;19939;-67
2022/10/25 03:48:19;;;;;;;;;;;14.60;94.60;;;;;;5048845;28;19928;-66
2022/10/25 03:50:45;;;;;;;;;;;14.60;94.60;;;;;;5052178;28;19951;-67
2022/10/25 03:53:12;;;;;;;;;;;14.60;94.50;;;;;;5046348;28;19928;-66
2022/10/25 03:55:38;;;;;;;;;;;14.60;94.50;;;;;;5044171;28;19940;-67
2022/10/25 03:58:05;;;;;;;;;;;14.60;94.50;;;;;;5038741;28;20393;-67
2022/10/25 04:00:32;;;;;;;;;;;14.60;94.50;;;;;;5042868;28;19929;-67
2022/10/25 04:03:00;;;;;;;;;;;14.60;94.50;;;;;;5041135;28;19933;-67
2022/10/25 04:05:27;;;;;;;;;;;14.60;94.50;;;;;;5045613;28;19924;-69
2022/10/25 04:07:54;;;;;;;;;;;14.60;94.50;;;;;;5049721;28;19929;-68
2022/10/25 04:10:20;;;;;;;;;;;14.60;94.50;;;;;;5036220;28;19944;-66
2022/10/25 04:12:47;;;;;;;;;;;14.60;94.50;;;;;;5042677;28;19933;-67
2022/10/25 04:15:14;;;;;;;;;;;14.60;94.50;;;;;;5041584;28;19928;-66
2022/10/25 04:17:40;;;;;;;;;;;14.60;94.50;;;;;;5063101;28;19935;-68
2022/10/25 04:20:09;;;;;;;;;;;14.60;94.50;;;;;;5062787;28;19928;-67
2022/10/25 04:22:35;;;;;;;;;;;14.60;94.40;;;;;;5067442;28;19932;-66
2022/10/25 04:25:02;;;;;;;;;;;14.60;94.40;;;;;;5066451;28;19935;-67
2022/10/25 04:27:28;;;;;;;;;;;14.60;94.40;;;;;;5062121;28;19932;-68
2022/10/25 04:29:55;;;;;;;;;;;14.60;94.40;;;;;;5064475;28;19932;-67
2022/10/25 04:32:21;;;;;;;;;;;14.60;94.40;;;;;;5069000;28;19939;-67
2022/10/25 04:34:48;;;;;;;;;;;14.60;94.40;;;;;;5065318;28;19928;-67
2022/10/25 04:37:16;;;;;;;;;;;14.60;94.40;;;;;;5067378;28;19935;-67
2022/10/25 04:39:42;;;;;;;;;;;14.60;94.40;;;;;;5070988;28;20018;-66
2022/10/25 04:42:09;;;;;;;;;;;14.60;94.40;;;;;;5066362;28;20342;-67
2022/10/25 04:44:35;;;;;;;;;;;14.60;94.50;;;;;;5066798;28;19928;-67
2022/10/25 04:47:02;;;;;;;;;;;14.60;94.50;;;;;;5066635;28;19950;-67
2022/10/25 04:49:28;;;;;;;;;;;14.50;94.50;;;;;;5065964;28;19955;-67
2022/10/25 04:51:55;;;;;;;;;;;14.60;94.50;;;;;;5067842;28;19928;-66
2022/10/25 04:54:23;;;;;;;;;;;14.50;94.50;;;;;;5066332;28;19939;-67
2022/10/25 04:56:49;;;;;;;;;;;14.60;94.60;;;;;;5064471;28;19928;-66
2022/10/25 04:59:16;;;;;;;;;;;14.50;94.60;;;;;;5064726;28;19928;-67
2022/10/25 05:01:42;;;;;;;;;;;14.50;94.10;;;;;;5050511;28;19929;-67
2022/10/25 05:04:09;;;;;;;;;;;14.50;94.20;;;;;;5036008;28;19929;-67
2022/10/25 05:06:36;;;;;;;;;;;14.50;94.30;;;;;;5046542;28;19929;-67
2022/10/25 05:09:03;;;;;;;;;;;14.50;94.40;;;;;;5045553;28;19937;-67
2022/10/25 05:11:32;;;;;;;;;;;14.50;94.40;;;;;;5048064;28;19928;-67
2022/10/25 05:13:58;;;;;;;;;;;14.50;94.50;;;;;;5046469;28;20108;-68
2022/10/25 05:16:25;;;;;;;;;;;14.50;94.60;;;;;;5045906;28;19928;-67
2022/10/25 05:18:53;;;;;;;;;;;14.50;94.60;;;;;;5046285;28;20119;-67
2022/10/25 05:21:20;;;;;;;;;;;14.50;94.60;;;;;;5045264;28;19939;-67
2022/10/25 05:23:46;;;;;;;;;;;14.50;94.70;;;;;;5047075;28;19929;-68
2022/10/25 05:26:14;;;;;;;;;;;14.50;94.70;;;;;;5045481;28;19932;-67
2022/10/25 05:28:43;;;;;;;;;;;14.40;94.60;;;;;;5042750;28;19929;-67
2022/10/25 05:31:13;;;;;;;;;;;14.40;94.60;;;;;;5048809;28;20304;-68
2022/10/25 05:33:39;;;;;;;;;;;14.40;94.60;;;;;;5047112;28;20019;-67
2022/10/25 05:36:06;;;;;;;;;;;14.40;94.70;;;;;;5046524;28;19929;-67
2022/10/25 05:38:33;;;;;;;;;;;14.40;94.70;;;;;;5046157;28;19932;-67
2022/10/25 05:41:00;;;;;;;;;;;14.40;94.80;;;;;;5043703;28;19936;-67
2022/10/25 05:43:26;;;;;;;;;;;14.40;94.80;;;;;;5048684;28;19929;-66
2022/10/25 05:46:01;;;;;;;;;;;14.40;94.70;;;;;;5044150;28;19936;-67
2022/10/25 05:48:27;;;;;;;;;;;14.40;94.80;;;;;;5033458;28;19935;-67
2022/10/25 05:50:54;;;;;;;;;;;14.40;94.80;;;;;;5043559;28;19936;-67
2022/10/25 05:53:20;;;;;;;;;;;14.40;94.80;;;;;;5036581;28;19952;-67
2022/10/25 05:55:47;;;;;;;;;;;14.30;94.80;;;;;;5040098;28;19930;-67
2022/10/25 05:58:13;;;;;;;;;;;14.40;94.90;;;;;;5043165;28;20340;-66
2022/10/25 06:00:40;;;;;;;;;;;14.30;94.80;;;;;;5041255;28;19933;-67
2022/10/25 06:03:08;;;;;;;;;;;14.30;94.80;;;;;;5040778;28;19936;-68
2022/10/25 06:05:34;;;;;;;;;;;14.30;94.80;;;;;;5044563;28;20296;-67
2022/10/25 06:08:01;;;;;;;;;;;14.30;94.90;;;;;;5045673;28;20377;-68
2022/10/25 06:10:28;;;;;;;;;;;14.30;94.90;;;;;;5045186;28;20428;-68
2022/10/25 06:12:54;;;;;;;;;;;14.30;94.90;;;;;;5042621;28;19929;-67
2022/10/25 06:15:21;;;;;;;;;;;14.30;94.90;;;;;;5039637;28;19939;-66
2022/10/25 06:17:47;;;;;;;;;;;14.30;94.90;;;;;;5042824;28;19936;-67
2022/10/25 06:20:15;;;;;;;;;;;14.30;95.00;;;;;;5041467;28;19933;-66
2022/10/25 06:22:42;;;;;;;;;;;14.30;95.00;;;;;;5043615;28;19933;-66
2022/10/25 06:25:09;;;;;;;;;;;14.30;95.00;;;;;;5043223;28;19933;-67
2022/10/25 06:27:36;;;;;;;;;;;14.30;95.00;;;;;;5040669;28;19929;-67
2022/10/25 06:30:02;;;;;;;;;;;14.30;95.00;;;;;;5041745;28;20059;-66
2022/10/25 06:32:29;;;;;;;;;;;14.30;95.00;;;;;;5043649;28;19936;-68
2022/10/25 06:34:55;;;;;;;;;;;14.20;95.00;;;;;;5044041;28;19935;-67
2022/10/25 06:37:23;;;;;;;;;;;14.30;95.00;;;;;;5041800;28;19933;-67
2022/10/25 06:39:50;;;;;;;;;;;14.30;95.00;;;;;;5040300;28;19929;-66
2022/10/25 06:42:16;;;;;;;;;;;14.20;95.00;;;;;;5041634;28;19932;-67
2022/10/25 06:44:43;;;;;;;;;;;14.20;95.00;;;;;;5040134;28;19933;-67
2022/10/25 06:47:09;;;;;;;;;;;14.20;95.00;;;;;;5042731;28;19936;-68
2022/10/25 06:49:36;;;;;;;;;;;14.20;95.00;;;;;;5042827;28;19929;-67
2022/10/25 06:52:02;;;;;;;;;;;14.20;95.00;;;;;;5044061;28;19929;-68
2022/10/25 06:54:30;;;;;;;;;;;14.20;95.00;;;;;;5042832;28;20557;-67
2022/10/25 06:56:57;;;;;;;;;;;14.20;95.00;;;;;;5038198;28;19935;-67
2022/10/25 06:59:24;;;;;;;;;;;14.20;95.00;;;;;;5038656;28;20400;-67
2022/10/25 07:01:51;;;;;;;;;;;14.20;95.00;;;;;;5043515;28;19952;-68
2022/10/25 07:04:17;;;;;;;;;;;14.20;95.00;;;;;;5039323;28;19935;-69
2022/10/25 07:06:44;;;;;;;;;;;14.20;95.00;;;;;;5044230;28;19936;-67
2022/10/25 07:09:11;;;;;;;;;;;14.20;95.00;;;;;;5040210;28;19937;-67
2022/10/25 07:11:39;;;;;;;;;;;14.20;95.00;;;;;;5042744;28;20491;-67
2022/10/25 07:14:05;;;;;;;;;;;14.20;95.00;;;;;;5044432;28;19929;-68
2022/10/25 07:16:32;;;;;;;;;;;14.20;95.00;;;;;;5041108;28;20301;-67
2022/10/25 07:18:59;;;;;;;;;;;14.20;95.00;;;;;;5040676;28;20409;-67
2022/10/25 07:21:26;;;;;;;;;;;14.20;95.00;;;;;;5044106;28;19982;-67
2022/10/25 07:23:52;;;;;;;;;;;14.10;95.10;;;;;;5041345;28;19979;-68
2022/10/25 07:26:20;;;;;;;;;;;14.10;95.00;;;;;;5043650;28;19929;-68
2022/10/25 07:28:49;;;;;;;;;;;14.20;95.10;;;;;;5041615;28;19929;-67
2022/10/25 07:31:16;;;;;;;;;;;14.10;95.00;;;;;;5037958;28;19928;-67
2022/10/25 07:33:43;;;;;;;;;;;14.10;95.00;;;;;;5039149;28;20328;-68
2022/10/25 07:36:10;;;;;;;;;;;14.20;95.10;;;;;;5041030;28;20573;-68
2022/10/25 07:38:36;;;;;;;;;;;14.10;95.10;;;;;;5043321;28;20348;-67
2022/10/25 07:41:03;;;;;;;;;;;14.10;95.10;;;;;;5040430;28;19940;-67
2022/10/25 07:43:29;;;;;;;;;;;14.10;95.10;;;;;;5041132;28;19938;-67
2022/10/25 07:45:57;;;;;;;;;;;14.10;95.10;;;;;;5042185;28;19933;-68
2022/10/25 07:48:24;;;;;;;;;;;14.10;95.10;;;;;;5036230;28;19929;-67
2022/10/25 07:50:51;;;;;;;;;;;14.10;95.10;;;;;;5043842;28;20308;-66
2022/10/25 07:53:17;;;;;;;;;;;14.10;95.10;;;;;;5035783;28;19936;-68
2022/10/25 07:55:49;;;;;;;;;;;14.10;95.10;;;;;;5042836;28;20396;-68
2022/10/25 07:58:15;;;;;;;;;;;14.10;95.10;;;;;;5037587;28;19936;-67
2022/10/25 08:00:42;;;;;;;;;;;14.10;95.10;;;;;;5047637;28;19928;-67
2022/10/25 08:03:10;;;;;;;;;;;14.10;95.10;;;;;;5041697;28;20621;-67
2022/10/25 08:05:36;;;;;;;;;;;14.10;95.10;;;;;;5048689;28;19932;-66
2022/10/25 08:08:04;;;;;;;;;;;14.10;95.10;;;;;;5045497;28;19940;-68
2022/10/25 08:10:30;;;;;;;;;;;14.10;95.10;;;;;;5047462;28;20313;-66
2022/10/25 08:12:57;;;;;;;;;;;14.10;95.10;;;;;;5044443;28;20708;-66
2022/10/25 08:15:24;;;;;;;;;;;14.10;95.10;;;;;;5044628;28;19976;-66
2022/10/25 08:17:56;;;;;;;;;;;14.10;95.10;;;;;;5038917;28;20615;-66
2022/10/25 08:20:24;;;;;;;;;;;14.10;95.10;;;;;;5046053;28;19932;-67
2022/10/25 08:22:51;;;;;;;;;;;14.10;95.10;;;;;;5045773;28;19929;-66
2022/10/25 08:25:17;;;;;;;;;;;14.10;95.10;;;;;;5042734;28;19933;-68
2022/10/25 08:27:44;;;;;;;;;;;14.10;95.10;;;;;;5044571;28;19950;-67
2022/10/25 08:30:11;;;;;;;;;;;14.20;95.20;;;;;;5046864;28;19935;-68
2022/10/25 08:32:38;;;;;;;;;;;14.20;95.20;;;;;;5048273;28;19936;-67
2022/10/25 08:35:05;;;;;;;;;;;14.20;95.10;;;;;;5043193;28;19929;-67
2022/10/25 08:37:32;;;;;;;;;;;14.20;95.10;;;;;;5044094;28;19937;-67
2022/10/25 08:39:59;;;;;;;;;;;14.20;95.10;;;;;;5040182;28;20598;-68
2022/10/25 08:42:30;;;;;;;;;;;14.20;95.10;;;;;;5038257;28;19936;-67
2022/10/25 08:45:00;;;;;;;;;;;14.20;95.10;;;;;;5040705;28;19928;-68
2022/10/25 08:47:28;;;;;;;;;;;14.30;95.10;;;;;;5036927;28;19933;-67
2022/10/25 08:49:57;;;;;;;;;;;14.30;95.10;;;;;;5044782;28;19932;-67
2022/10/25 08:52:26;;;;;;;;;;;14.30;95.00;;;;;;5041707;28;20444;-67
2022/10/25 08:54:55;;;;;;;;;;;14.30;95.00;;;;;;5043576;28;19972;-67
2022/10/25 08:57:23;;;;;;;;;;;14.30;95.00;;;;;;5042794;28;19929;-68
2022/10/25 08:59:52;;;;;;;;;;;14.30;95.00;;;;;;5045498;28;20413;-66
2022/10/25 09:02:33;;;;;;;;;;;14.30;95.00;;;;;;5043622;28;19929;-67
2022/10/25 09:05:00;;;;;;;;;;;14.40;95.00;;;;;;5042303;28;19972;-67
2022/10/25 09:07:40;;;;;;;;;;;14.40;95.00;;;;;;5045971;28;19936;-68
2022/10/25 09:10:15;;;;;;;;;;;14.40;95.00;;;;;;5043156;28;19928;-67
2022/10/25 09:12:44;;;;;;;;;;;14.40;95.00;;;;;;5040279;28;19936;-67
2022/10/25 09:15:13;;;;;;;;;;;14.40;95.00;;;;;;5046253;28;19928;-68
2022/10/25 09:17:43;;;;;;;;;;;14.40;95.00;;;;;;5046212;28;19940;-68
2022/10/25 09:20:15;;;;;;;;;;;14.50;95.00;;;;;;5046306;28;20389;-68
2022/10/25 09:22:44;;;;;;;;;;;14.50;95.00;;;;;;5044645;28;19936;-67
2022/10/25 09:25:16;;;;;;;;;;;14.50;95.00;;;;;;5042114;28;20381;-67
2022/10/25 09:27:47;;;;;;;;;;;14.50;94.90;;;;;;5040964;28;20054;-67
2022/10/25 09:30:13;;;;;;;;;;;14.50;94.90;;;;;;5045696;28;19929;-68
2022/10/25 09:35:44;;;;;;;;;;;14.50;94.90;;;;;;5032618;28;20006;-68
2022/10/25 09:38:14;;;;;;;;;;;14.50;94.90;;;;;;5042333;28;19929;-68
2022/10/25 09:40:45;;;;;;;;;;;14.50;94.90;;;;;;5042013;28;19928;-68
2022/10/25 09:43:16;;;;;;;;;;;14.50;94.90;;;;;;5045465;28;19935;-67
2022/10/25 09:45:45;;;;;;;;;;;14.60;94.90;;;;;;5038987;28;20028;-67
2022/10/25 09:48:15;;;;;;;;;;;14.60;94.90;;;;;;5039486;28;19955;-67
2022/10/25 09:50:44;;;;;;;;;;;14.60;94.90;;;;;;5042950;28;19929;-67
2022/10/25 09:53:11;;;;;;;;;;;14.60;94.90;;;;;;5045932;28;20380;-68
2022/10/25 09:55:41;;;;;;;;;;;14.60;94.90;;;;;;5045733;28;20022;-67
2022/10/25 09:58:11;;;;;;;;;;;14.60;94.90;;;;;;5042593;28;20313;-67
2022/10/25 10:00:39;;;;;;;;;;;14.70;94.90;;;;;;5042378;28;19948;-67
2022/10/25 10:03:05;;;;;;;;;;;14.70;94.90;;;;;;5040960;28;19932;-67
2022/10/25 10:05:32;;;;;;;;;;;14.70;94.90;;;;;;5040222;28;19925;-67
2022/10/25 10:07:59;;;;;;;;;;;14.80;94.90;;;;;;5042762;28;19940;-66
2022/10/25 10:10:29;;;;;;;;;;;14.80;94.80;;;;;;5045393;28;19980;-67
2022/10/25 10:12:58;;;;;;;;;;;14.80;94.80;;;;;;5042420;28;20399;-68
2022/10/25 10:15:28;;;;;;;;;;;14.80;94.80;;;;;;5039188;28;19932;-66
2022/10/25 10:18:15;;;;;;;;;;;14.90;94.70;;;;;;5043797;28;19932;-67
2022/10/25 10:20:54;;;;;;;;;;;14.90;94.60;;;;;;5041604;28;20449;-67
2022/10/25 10:23:21;;;;;;;;;;;15.00;94.50;;;;;;5044560;28;19925;-67
2022/10/25 10:25:48;;;;;;;;;;;15.10;94.40;;;;;;5043716;28;19924;-67
2022/10/25 10:28:15;;;;;;;;;;;15.10;94.20;;;;;;5044392;28;19929;-67
2022/10/25 10:30:52;;;;;;;;;;;15.20;94.20;;;;;;5038932;28;19932;-67
2022/10/25 10:33:19;;;;;;;;;;;15.30;94.10;;;;;;5043275;28;19935;-68
2022/10/25 10:35:45;;;;;;;;;;;15.40;94.00;;;;;;5041693;28;20413;-67
2022/10/25 10:38:21;;;;;;;;;;;15.40;93.70;;;;;;5042430;28;20380;-66
2022/10/25 10:40:47;;;;;;;;;;;15.50;93.60;;;;;;5038896;28;19975;-68
2022/10/25 10:43:24;;;;;;;;;;;15.60;93.50;;;;;;5041689;28;19956;-67
2022/10/25 10:45:52;;;;;;;;;;;15.70;93.30;;;;;;5034050;28;20038;-66
2022/10/25 10:48:19;;;;;;;;;;;15.80;93.20;;;;;;5044661;28;19964;-68
2022/10/25 10:50:48;;;;;;;;;;;15.90;92.70;;;;;;5037478;28;19968;-67
2022/10/25 10:53:19;;;;;;;;;;;16.00;92.60;;;;;;5044768;28;19971;-68
2022/10/25 10:55:47;;;;;;;;;;;16.00;92.40;;;;;;5043545;28;19944;-68
2022/10/25 10:58:15;;;;;;;;;;;16.10;92.20;;;;;;5040920;28;20404;-67
2022/10/25 11:00:48;;;;;;;;;;;16.20;92.30;;;;;;5042712;28;19928;-66
2022/10/25 11:03:30;;;;;;;;;;;16.20;92.30;;;;;;5045383;28;19928;-67
2022/10/25 11:05:59;;;;;;;;;;;16.30;91.80;;;;;;5038618;28;19935;-67
2022/10/25 11:08:26;;;;;;;;;;;16.40;91.90;;;;;;5041553;28;19929;-67
2022/10/25 11:11:11;;;;;;;;;;;16.40;91.90;;;;;;5040643;28;19936;-67
2022/10/25 11:13:37;;;;;;;;;;;16.50;91.90;;;;;;5043752;28;19936;-67
2022/10/25 11:16:25;;;;;;;;;;;16.50;91.50;;;;;;5038702;28;19932;-66
2022/10/25 11:18:55;;;;;;;;;;;16.60;91.50;;;;;;5040852;28;20312;-67
2022/10/25 11:21:34;;;;;;;;;;;16.70;91.60;;;;;;5038510;28;20376;-65
2022/10/25 11:24:06;;;;;;;;;;;16.70;91.40;;;;;;5040853;28;19936;-66
2022/10/25 11:26:37;;;;;;;;;;;16.70;91.50;;;;;;5037844;28;19951;-68
2022/10/25 11:29:08;;;;;;;;;;;16.80;91.50;;;;;;5036984;28;19951;-68
2022/10/25 11:31:48;;;;;;;;;;;16.80;91.30;;;;;;5043454;28;19939;-68
2022/10/25 11:34:18;;;;;;;;;;;16.90;90.70;;;;;;5033105;28;19940;-67
2022/10/25 11:36:51;;;;;;;;;;;16.90;90.90;;;;;;5039508;28;19928;-67
2022/10/25 11:39:32;;;;;;;;;;;17.00;91.00;;;;;;5036602;28;19929;-67
2022/10/25 11:42:03;;;;;;;;;;;17.00;91.10;;;;;;5032712;28;19979;-67
2022/10/25 11:44:41;;;;;;;;;;;17.00;90.40;;;;;;5034356;28;19936;-67
2022/10/25 11:47:12;;;;;;;;;;;17.10;90.70;;;;;;5032655;28;19929;-67
2022/10/25 11:49:45;;;;;;;;;;;17.10;90.90;;;;;;5039134;28;19933;-68
2022/10/25 11:52:41;;;;;;;;;;;17.20;90.90;;;;;;5036984;28;19929;-67
2022/10/25 11:55:17;;;;;;;;;;;17.20;90.80;;;;;;4994998;28;19937;-68
2022/10/25 11:57:46;;;;;;;;;;;17.30;90.70;;;;;;5031363;28;20628;-68
2022/10/25 12:00:14;;;;;;;;;;;17.30;90.30;;;;;;5042091;28;19936;-67
2022/10/25 12:02:49;;;;;;;;;;;17.30;90.30;;;;;;5041159;28;19928;-68
2022/10/25 12:05:21;;;;;;;;;;;17.40;89.80;;;;;;5042989;28;19936;-67
2022/10/25 12:07:50;;;;;;;;;;;17.40;90.00;;;;;;5042003;28;19929;-68
2022/10/25 12:10:22;;;;;;;;;;;17.40;89.90;;;;;;5044121;28;20421;-68
2022/10/25 12:12:51;;;;;;;;;;;17.40;89.80;;;;;;5042373;28;19928;-68
2022/10/25 12:15:20;;;;;;;;;;;17.40;90.20;;;;;;5038385;28;19935;-68
2022/10/25 12:17:47;;;;;;;;;;;17.40;90.40;;;;;;5042275;28;19929;-67
2022/10/25 12:20:18;;;;;;;;;;;17.40;90.50;;;;;;5040317;28;19929;-66
2022/10/25 12:22:46;;;;;;;;;;;17.40;90.50;;;;;;5041150;28;19929;-67
2022/10/25 12:25:15;;;;;;;;;;;17.40;90.20;;;;;;5043299;28;19944;-68
2022/10/25 12:27:44;;;;;;;;;;;17.40;90.00;;;;;;5039887;28;19929;-67
2022/10/25 12:30:14;;;;;;;;;;;17.50;90.10;;;;;;5037313;28;19928;-67
2022/10/25 12:32:42;;;;;;;;;;;17.60;89.90;;;;;;5035091;28;19936;-67
2022/10/25 12:35:17;;;;;;;;;;;17.60;89.90;;;;;;5035079;28;19929;-67
2022/10/25 12:37:46;;;;;;;;;;;17.70;89.80;;;;;;5038524;28;19940;-66
2022/10/25 12:40:15;;;;;;;;;;;17.80;89.80;;;;;;5041854;28;19983;-66
2022/10/25 12:42:44;;;;;;;;;;;17.80;89.50;;;;;;5040299;28;20491;-67
2022/10/25 12:45:38;;;;;;;;;;;17.90;89.10;;;;;;5041273;28;20066;-67
2022/10/25 12:48:08;;;;;;;;;;;18.00;88.20;;;;;;5019063;28;19932;-66
2022/10/25 12:50:49;;;;;;;;;;;18.10;87.10;;;;;;5042532;28;19928;-67
2022/10/25 12:53:30;;;;;;;;;;;18.10;87.50;;;;;;5046855;28;19929;-67
2022/10/25 12:56:00;;;;;;;;;;;18.20;86.60;;;;;;5045289;28;20027;-69
2022/10/25 12:58:40;;;;;;;;;;;18.30;86.80;;;;;;5044000;28;19955;-67
2022/10/25 13:01:15;;;;;;;;;;;18.30;86.80;;;;;;5044451;28;19960;-67
2022/10/25 13:03:55;;;;;;;;;;;18.40;86.60;;;;;;5047029;28;19936;-68
2022/10/25 13:06:35;;;;;;;;;;;18.40;85.80;;;;;;5040251;28;20385;-67
2022/10/25 13:09:04;;;;;;;;;;;18.50;85.20;;;;;;5045670;28;19936;-67
2022/10/25 13:11:35;;;;;;;;;;;18.50;85.10;;;;;;5039469;28;19935;-68
2022/10/25 13:14:03;;;;;;;;;;;18.50;85.70;;;;;;5040334;28;19929;-68
2022/10/25 13:16:31;;;;;;;;;;;18.60;85.00;;;;;;5046364;28;19936;-67
2022/10/25 13:19:31;;;;;;;;;;;18.60;84.60;;;;;;5041101;28;19928;-67
2022/10/25 13:22:06;;;;;;;;;;;18.70;84.70;;;;;;4984857;28;19934;-68
2022/10/25 13:24:39;;;;;;;;;;;18.70;85.30;;;;;;4991275;28;19933;-68
2022/10/25 13:27:20;;;;;;;;;;;18.70;84.70;;;;;;5021714;28;19936;-68
2022/10/25 13:30:02;;;;;;;;;;;18.80;84.40;;;;;;5044411;28;20400;-67
2022/10/25 13:32:30;;;;;;;;;;;18.80;85.20;;;;;;5040878;28;19936;-68
2022/10/25 13:34:57;;;;;;;;;;;18.80;85.30;;;;;;5041601;28;19963;-68
2022/10/25 13:37:38;;;;;;;;;;;18.80;84.70;;;;;;5043165;28;19935;-66
2022/10/25 13:40:05;;;;;;;;;;;18.90;86.10;;;;;;5038352;28;19978;-68
2022/10/25 13:42:33;;;;;;;;;;;18.80;85.70;;;;;;5038534;28;19929;-67
2022/10/25 13:45:06;;;;;;;;;;;18.90;83.20;;;;;;5040014;28;19929;-67
2022/10/25 13:47:39;;;;;;;;;;;18.90;83.50;;;;;;5041685;28;19928;-68
2022/10/25 13:50:13;;;;;;;;;;;18.90;84.20;;;;;;5037558;28;19929;-69
2022/10/25 13:52:44;;;;;;;;;;;18.90;84.30;;;;;;5039978;28;19936;-69
2022/10/25 13:55:14;;;;;;;;;;;19.00;84.90;;;;;;5046703;28;20304;-70
2022/10/25 13:57:47;;;;;;;;;;;19.00;84.50;;;;;;5044907;28;19936;-68
2022/10/25 14:00:42;;;;;;;;;;;19.00;84.90;;;;;;5039209;28;19929;-68
2022/10/25 14:03:34;;;;;;;;;;;19.00;84.30;;;;;;5015167;28;19929;-69
2022/10/25 14:06:13;;;;;;;;;;;19.00;84.10;;;;;;5039513;28;19932;-67
2022/10/25 14:08:47;;;;;;;;;;;19.00;84.50;;;;;;5045477;28;19928;-66
2022/10/25 14:11:16;;;;;;;;;;;19.10;84.50;;;;;;5040151;28;19940;-67
2022/10/25 14:13:46;;;;;;;;;;;19.10;84.70;;;;;;5044530;28;19929;-69
2022/10/25 14:16:17;;;;;;;;;;;19.10;84.50;;;;;;5037314;28;20038;-67
2022/10/25 14:18:44;;;;;;;;;;;19.00;84.20;;;;;;5043729;28;19932;-68
2022/10/25 14:21:12;;;;;;;;;;;19.00;84.60;;;;;;5044761;28;19929;-67
2022/10/25 14:23:40;;;;;;;;;;;19.00;84.90;;;;;;5045482;28;19943;-69
2022/10/25 14:26:12;;;;;;;;;;;19.00;84.40;;;;;;5040404;28;20548;-68
2022/10/25 14:28:39;;;;;;;;;;;19.00;84.40;;;;;;5044036;28;20659;-66
2022/10/25 14:31:06;;;;;;;;;;;19.00;84.80;;;;;;5043009;28;20687;-68